Time;durP1;ratioP1;P1;durP2;ratioP2;P2;SDS_P1;SDS_P2;PMS_P1;PMS_P2;Temp;Humidity;BMP_temperature;BMP_pressure;BME280_temperature;BME280_humidity;BME280_pressure;Samples;Min_cycle;Max_cycle;Signal;HPM_P1;HPM_P2
2023/01/02 00:00:18;;;;;;;5.43;1.13;;;;;;;7.78;55.88;101048.94;4988808;28;20041;-65
2023/01/02 00:02:43;;;;;;;6.70;1.00;;;;;;;7.84;55.40;101041.84;4977390;28;20038;-65
2023/01/02 00:05:09;;;;;;;5.28;1.65;;;;;;;7.94;55.41;101035.53;4981720;28;20466;-62
2023/01/02 00:07:34;;;;;;;5.78;1.33;;;;;;;7.76;55.82;101032.53;4984487;28;20049;-64
2023/01/02 00:10:00;;;;;;;6.00;1.85;;;;;;;7.96;55.26;101025.06;4983650;28;20033;-63
2023/01/02 00:12:25;;;;;;;5.60;1.55;;;;;;;7.95;55.04;101031.16;4984861;28;20259;-63
2023/01/02 00:14:51;;;;;;;6.63;1.30;;;;;;;7.92;55.46;101031.25;4980443;28;20406;-62
2023/01/02 00:17:17;;;;;;;5.93;1.65;;;;;;;7.86;55.34;101037.44;4984312;28;20133;-63
2023/01/02 00:19:43;;;;;;;3.72;0.70;;;;;;;8.00;55.18;101025.81;4984953;28;20042;-62
2023/01/02 00:22:09;;;;;;;10.55;1.20;;;;;;;7.87;55.47;101023.56;4998411;28;20049;-63
2023/01/02 00:24:34;;;;;;;8.05;0.93;;;;;;;7.77;55.78;101023.84;4985250;28;20053;-63
2023/01/02 00:26:59;;;;;;;5.57;1.63;;;;;;;7.74;56.38;101025.63;4985200;28;20060;-63
2023/01/02 00:29:25;;;;;;;4.93;0.90;;;;;;;7.79;55.95;101020.31;4984025;28;20573;-63
2023/01/02 00:31:50;;;;;;;5.93;1.30;;;;;;;7.49;57.53;101012.34;4979170;28;20077;-63
2023/01/02 00:34:16;;;;;;;7.45;1.77;;;;;;;7.60;57.21;101024.25;4984217;28;20674;-63
2023/01/02 00:36:41;;;;;;;8.77;1.27;;;;;;;7.78;56.89;101012.53;4980118;28;20313;-63
2023/01/02 00:39:07;;;;;;;6.00;1.30;;;;;;;7.86;56.54;101011.44;4985539;28;20060;-64
2023/01/02 00:41:32;;;;;;;4.45;1.02;;;;;;;7.81;56.56;101004.66;4986775;28;20117;-63
2023/01/02 00:43:58;;;;;;;6.30;1.30;;;;;;;7.83;56.48;101010.69;4982619;28;20484;-63
2023/01/02 00:46:23;;;;;;;9.85;1.52;;;;;;;7.85;56.70;100993.28;4983039;28;20070;-63
2023/01/02 00:48:49;;;;;;;6.18;1.27;;;;;;;7.81;56.88;100989.03;4979480;28;20079;-63
2023/01/02 00:51:14;;;;;;;4.28;1.20;;;;;;;7.83;57.05;100979.44;4984683;28;20743;-62
2023/01/02 00:53:39;;;;;;;11.93;2.10;;;;;;;7.77;57.46;100977.84;4980749;28;20597;-63
2023/01/02 00:56:05;;;;;;;8.23;1.67;;;;;;;7.74;57.59;100976.19;4984416;28;20022;-63
2023/01/02 00:58:31;;;;;;;4.18;1.70;;;;;;;7.78;57.58;100976.09;4983908;28;20037;-63
2023/01/02 01:00:56;;;;;;;8.18;1.88;;;;;;;7.67;57.73;100966.84;4980065;28;20033;-63
2023/01/02 01:03:21;;;;;;;4.68;1.73;;;;;;;7.77;57.85;100956.19;4980467;28;20038;-63
2023/01/02 01:05:47;;;;;;;5.65;1.90;;;;;;;7.75;58.08;100953.63;4982623;28;20502;-63
2023/01/02 01:08:12;;;;;;;9.07;2.03;;;;;;;7.43;59.34;100947.50;4983726;28;20046;-64
2023/01/02 01:10:38;;;;;;;5.15;2.30;;;;;;;7.68;58.51;100944.28;4981528;28;20159;-63
2023/01/02 01:13:04;;;;;;;3.65;1.80;;;;;;;7.83;57.90;100935.22;4982798;28;20050;-63
2023/01/02 01:15:29;;;;;;;5.25;1.65;;;;;;;7.82;58.16;100936.94;4981261;28;20353;-63
2023/01/02 01:17:58;;;;;;;8.07;2.47;;;;;;;7.76;58.31;100931.94;4982155;28;21421;-63
2023/01/02 01:20:24;;;;;;;9.95;2.30;;;;;;;7.78;58.37;100924.94;4987875;28;20037;-64
2023/01/02 01:22:49;;;;;;;4.75;1.58;;;;;;;7.86;58.22;100916.91;4980869;28;20050;-64
2023/01/02 01:25:15;;;;;;;8.48;2.35;;;;;;;7.91;57.87;100917.63;4983757;28;20491;-64
2023/01/02 01:27:41;;;;;;;5.50;2.38;;;;;;;7.88;58.25;100913.34;4980548;28;20052;-63
2023/01/02 01:30:06;;;;;;;5.97;2.38;;;;;;;7.84;58.50;100906.53;4984476;28;20156;-63
2023/01/02 01:32:33;;;;;;;7.43;2.28;;;;;;;7.76;58.92;100905.03;4979703;28;20057;-64
2023/01/02 01:34:58;;;;;;;6.60;2.70;;;;;;;7.81;58.75;100903.19;4978305;28;20088;-64
2023/01/02 01:37:24;;;;;;;6.82;3.60;;;;;;;7.68;59.23;100898.31;4978787;28;21008;-63
2023/01/02 01:39:49;;;;;;;8.35;2.95;;;;;;;7.72;59.26;100889.53;4965308;28;20045;-63
2023/01/02 01:42:16;;;;;;;7.35;3.03;;;;;;;7.82;58.97;100890.09;4974480;28;20039;-64
2023/01/02 01:44:50;;;;;;;10.23;3.03;;;;;;;7.78;59.18;100887.63;4963601;28;20057;-66
2023/01/02 01:47:19;;;;;;;6.75;2.70;;;;;;;7.91;58.78;100889.88;4969058;28;20061;-65
2023/01/02 01:49:45;;;;;;;5.28;3.40;;;;;;;7.93;59.09;100882.00;4977174;28;20042;-62
2023/01/02 01:52:15;;;;;;;7.15;3.40;;;;;;;7.95;58.96;100883.66;4960644;28;20156;-62
2023/01/02 01:54:53;;;;;;;7.25;3.30;;;;;;;8.05;58.94;100880.81;4955665;28;20482;-62
2023/01/02 01:57:43;;;;;;;4.78;3.00;;;;;;;8.08;58.76;100875.50;4950337;28;20062;-63
2023/01/02 02:00:09;;;;;;;4.55;3.08;;;;;;;8.02;59.02;100878.28;4964978;28;20445;-62
2023/01/02 02:02:35;;;;;;;5.43;3.15;;;;;;;8.04;59.13;100882.53;4960829;28;20467;-62
2023/01/02 02:05:05;;;;;;;4.97;2.72;;;;;;;8.10;58.97;100882.38;4958941;28;20038;-63
2023/01/02 02:07:33;;;;;;;6.60;3.33;;;;;;;8.07;58.98;100879.88;4977566;28;20128;-62
2023/01/02 02:10:02;;;;;;;8.32;3.92;;;;;;;8.06;59.17;100880.75;4962240;28;20048;-61
2023/01/02 02:12:28;;;;;;;4.90;3.88;;;;;;;8.11;59.16;100876.28;4960344;28;20108;-63
2023/01/02 02:14:54;;;;;;;7.65;3.47;;;;;;;8.20;58.63;100879.47;4960476;28;20034;-63
2023/01/02 02:17:40;;;;;;;5.10;3.72;;;;;;;8.28;58.86;100872.31;4961578;28;20487;-65
2023/01/02 02:20:18;;;;;;;5.63;3.33;;;;;;;8.24;58.90;100881.94;4969276;28;20077;-65
2023/01/02 02:23:06;;;;;;;6.97;3.78;;;;;;;8.28;58.74;100877.50;4959193;28;20054;-65
2023/01/02 02:26:23;;;;;;;6.82;5.22;;;;;;;8.13;59.37;100879.66;4962952;28;20385;-61
2023/01/02 02:28:57;;;;;;;7.32;4.75;;;;;;;8.29;58.87;100859.25;4952647;28;20121;-69
2023/01/02 02:31:29;;;;;;;7.35;5.68;;;;;;;8.19;59.11;100862.16;4959733;28;20459;-62
2023/01/02 02:33:56;;;;;;;9.38;4.90;;;;;;;8.17;59.47;100848.34;4958418;28;20054;-64
2023/01/02 02:36:38;;;;;;;7.57;4.80;;;;;;;8.29;59.34;100854.03;4959953;28;20154;-63
2023/01/02 02:39:24;;;;;;;9.00;5.05;;;;;;;8.30;59.45;100845.31;4967261;28;20455;-62
2023/01/02 02:42:17;;;;;;;8.70;5.88;;;;;;;8.30;59.21;100840.09;4967934;28;20106;-63
2023/01/02 02:44:42;;;;;;;7.97;5.22;;;;;;;8.37;59.39;100830.34;4958098;28;20883;-62
2023/01/02 02:47:21;;;;;;;10.15;5.53;;;;;;;7.64;61.80;100821.22;4962717;28;20050;-63
2023/01/02 02:50:04;;;;;;;11.27;7.45;;;;;;;8.32;60.24;100811.41;4974893;28;20383;-63
2023/01/02 02:52:50;;;;;;;11.48;6.78;;;;;;;8.47;59.98;100810.94;4958693;28;20539;-63
2023/01/02 02:55:23;;;;;;;11.18;6.70;;;;;;;8.34;60.10;100805.25;4957953;28;20038;-64
2023/01/02 02:57:50;;;;;;;15.52;7.97;;;;;;;8.26;60.80;100803.78;4962105;28;20097;-63
2023/01/02 03:00:18;;;;;;;11.85;7.43;;;;;;;8.52;59.82;100796.00;4960747;28;20121;-63
2023/01/02 03:02:44;;;;;;;17.00;7.78;;;;;;;8.48;60.31;100796.16;4956316;28;20060;-63
2023/01/02 03:05:15;;;;;;;11.30;7.25;;;;;;;8.33;60.81;100792.28;4960489;28;20297;-62
2023/01/02 03:07:52;;;;;;;13.30;8.03;;;;;;;8.29;61.30;100782.84;4941820;28;20046;-64
2023/01/02 03:10:27;;;;;;;13.18;8.27;;;;;;;8.22;61.45;100783.94;4958621;28;20045;-63
2023/01/02 03:13:19;;;;;;;13.80;7.80;;;;;;;8.18;62.05;100792.75;4943120;28;20446;-63
2023/01/02 03:16:06;;;;;;;14.27;8.63;;;;;;;8.39;61.37;100786.88;4959853;28;20042;-62
2023/01/02 03:18:44;;;;;;;14.65;8.88;;;;;;;8.53;60.90;100783.81;4947665;28;20458;-62
2023/01/02 03:21:14;;;;;;;18.00;8.88;;;;;;;7.86;63.30;100786.78;4961935;28;20034;-63
2023/01/02 03:23:43;;;;;;;15.07;9.27;;;;;;;8.33;62.03;100784.47;4957375;28;20046;-62
2023/01/02 03:26:11;;;;;;;17.13;8.68;;;;;;;8.40;61.50;100783.34;4960026;28;21212;-63
2023/01/02 03:28:40;;;;;;;19.42;8.90;;;;;;;8.33;62.03;100774.03;4957971;28;20043;-62
2023/01/02 03:31:08;;;;;;;14.68;9.23;;;;;;;8.44;61.31;100784.13;4959295;28;20396;-62
2023/01/02 03:33:41;;;;;;;17.67;8.88;;;;;;;8.45;61.41;100781.47;4935315;28;20054;-63
2023/01/02 03:36:10;;;;;;;14.75;7.88;;;;;;;8.79;60.66;100782.16;4965483;28;20113;-63
2023/01/02 03:38:42;;;;;;;19.15;9.20;;;;;;;8.71;60.82;100782.38;4958862;28;20141;-65
2023/01/02 03:41:18;;;;;;;16.73;8.15;;;;;;;8.31;62.17;100784.50;4948228;28;20035;-66
2023/01/02 03:43:46;;;;;;;10.32;7.63;;;;;;;8.41;62.34;100779.88;4957559;28;20128;-65
2023/01/02 03:46:35;;;;;;;16.95;9.25;;;;;;;7.50;65.00;100785.19;4974582;28;20049;-69
2023/01/02 03:49:11;;;;;;;16.45;8.48;;;;;;;8.33;62.30;100784.47;4959335;28;20092;-71
2023/01/02 03:51:36;;;;;;;16.90;8.55;;;;;;;8.37;61.86;100788.69;4955934;28;20042;-72
2023/01/02 03:54:04;;;;;;;11.82;6.78;;;;;;;8.68;60.93;100777.25;4957903;28;20038;-73
2023/01/02 03:56:38;;;;;;;14.98;8.07;;;;;;;8.66;61.12;100779.06;4958026;28;20427;-73
2023/01/02 03:59:11;;;;;;;13.07;7.13;;;;;;;8.75;60.58;100784.84;4959783;28;20054;-73
2023/01/02 04:01:44;;;;;;;20.27;9.40;;;;;;;8.72;60.70;100786.72;4954810;28;20116;-73
2023/01/02 04:04:14;;;;;;;16.25;8.00;;;;;;;9.06;59.49;100788.16;4964039;28;20639;-74
2023/01/02 04:06:44;;;;;;;18.05;7.85;;;;;;;8.97;60.11;100790.16;4956304;28;20416;-73
2023/01/02 04:09:15;;;;;;;14.20;7.28;;;;;;;8.15;62.73;100797.16;4960915;28;20049;-74
2023/01/02 04:11:46;;;;;;;16.83;7.10;;;;;;;8.45;61.61;100797.09;4959637;28;20113;-73
2023/01/02 04:14:33;;;;;;;16.85;7.85;;;;;;;8.67;61.41;100796.38;4966551;28;20097;-73
2023/01/02 04:17:02;;;;;;;10.95;6.93;;;;;;;8.44;62.32;100787.56;4959258;28;20480;-74
2023/01/02 04:19:33;;;;;;;12.05;7.63;;;;;;;8.83;61.10;100782.00;4973728;28;20045;-74
2023/01/02 04:22:04;;;;;;;20.97;8.60;;;;;;;8.74;61.34;100783.16;4958184;28;20496;-74
2023/01/02 04:24:34;;;;;;;13.48;7.60;;;;;;;8.65;61.45;100782.56;4962544;28;20297;-73
2023/01/02 04:27:12;;;;;;;13.27;7.85;;;;;;;8.96;60.49;100778.06;4958524;28;20031;-75
2023/01/02 04:29:38;;;;;;;18.35;7.85;;;;;;;8.97;60.25;100779.75;4963418;28;20038;-66
2023/01/02 04:32:15;;;;;;;13.25;8.55;;;;;;;9.02;59.91;100776.97;4963061;28;20038;-65
2023/01/02 04:34:42;;;;;;;14.90;7.85;;;;;;;8.72;61.23;100778.91;4953263;28;20487;-66
2023/01/02 04:37:08;;;;;;;16.15;8.00;;;;;;;8.80;61.07;100786.44;4958167;28;20416;-65
2023/01/02 04:39:35;;;;;;;17.05;7.55;;;;;;;8.89;60.69;100776.53;4957813;28;20018;-66
2023/01/02 04:42:01;;;;;;;25.73;7.43;;;;;;;8.51;62.19;100783.84;4958444;28;20170;-66
2023/01/02 04:44:26;;;;;;;14.25;7.53;;;;;;;8.70;61.16;100778.06;4957116;28;20436;-66
2023/01/02 04:46:52;;;;;;;12.77;7.25;;;;;;;8.91;61.01;100769.53;4954108;28;21674;-66
2023/01/02 04:49:17;;;;;;;10.65;6.45;;;;;;;9.28;59.44;100773.44;4958976;28;20040;-66
2023/01/02 04:51:43;;;;;;;23.48;7.40;;;;;;;8.95;60.85;100780.72;4957720;28;20035;-66
2023/01/02 04:54:12;;;;;;;19.33;7.60;;;;;;;9.18;59.99;100785.09;4958563;28;20038;-66
2023/01/02 04:56:37;;;;;;;12.48;6.53;;;;;;;8.73;61.19;100781.44;4957897;28;20042;-66
2023/01/02 04:59:03;;;;;;;18.92;6.93;;;;;;;8.92;60.69;100773.84;4962325;28;20038;-67
2023/01/02 05:01:29;;;;;;;15.50;7.30;;;;;;;8.75;61.54;100773.56;4962167;28;20133;-72
2023/01/02 05:03:54;;;;;;;17.65;6.53;;;;;;;8.44;62.46;100774.53;4959244;28;20142;-72
2023/01/02 05:06:19;;;;;;;17.35;6.70;;;;;;;8.59;62.23;100777.56;4963538;28;20264;-73
2023/01/02 05:08:45;;;;;;;14.65;6.65;;;;;;;8.10;64.05;100775.63;4961766;28;20046;-72
2023/01/02 05:11:17;;;;;;;14.38;6.55;;;;;;;8.63;62.35;100774.81;4978201;28;20359;-71
2023/01/02 05:13:43;;;;;;;17.23;6.82;;;;;;;8.62;62.37;100777.47;4956738;28;20177;-72
2023/01/02 05:16:08;;;;;;;8.75;5.45;;;;;;;8.77;61.88;100787.41;4967697;28;20396;-72
2023/01/02 05:18:34;;;;;;;13.00;7.80;;;;;;;8.57;62.65;100778.44;4958677;28;20734;-72
2023/01/02 05:21:05;;;;;;;11.23;5.63;;;;;;;8.57;62.55;100775.84;4961322;28;20297;-71
2023/01/02 05:23:49;;;;;;;13.68;6.00;;;;;;;8.66;62.11;100769.47;4982941;28;20038;-66
2023/01/02 05:26:16;;;;;;;11.65;6.28;;;;;;;9.05;61.13;100776.00;4962022;28;20081;-66
2023/01/02 05:28:41;;;;;;;12.48;6.15;;;;;;;9.12;60.50;100777.50;4957056;28;20049;-65
2023/01/02 05:31:07;;;;;;;10.20;6.03;;;;;;;8.89;61.72;100773.94;4962140;28;20124;-67
2023/01/02 05:33:33;;;;;;;14.35;6.85;;;;;;;8.44;63.46;100779.75;4969844;28;20224;-65
2023/01/02 05:35:59;;;;;;;11.27;5.90;;;;;;;8.84;62.20;100770.66;4980709;28;20026;-72
2023/01/02 05:38:24;;;;;;;10.40;5.97;;;;;;;8.89;62.09;100773.94;4967499;28;20050;-72
2023/01/02 05:40:58;;;;;;;10.90;6.72;;;;;;;8.75;62.38;100763.16;4961562;28;20113;-67
2023/01/02 05:43:24;;;;;;;11.25;6.57;;;;;;;8.90;61.78;100765.22;4972585;28;20494;-64
2023/01/02 05:45:49;;;;;;;13.13;6.32;;;;;;;8.19;63.99;100760.63;4980212;28;20060;-64
2023/01/02 05:48:15;;;;;;;8.43;5.78;;;;;;;8.79;62.62;100767.34;4982763;28;20073;-64
2023/01/02 05:50:40;;;;;;;19.90;6.93;;;;;;;8.92;61.84;100765.19;4980331;28;20042;-64
2023/01/02 05:53:08;;;;;;;13.35;5.72;;;;;;;9.18;61.27;100765.09;4994764;28;20474;-64
2023/01/02 05:55:34;;;;;;;9.60;6.40;;;;;;;9.23;60.96;100758.84;4978371;28;20352;-64
2023/01/02 05:58:01;;;;;;;12.48;6.30;;;;;;;9.24;61.10;100760.56;4981631;28;20046;-64
2023/01/02 06:00:27;;;;;;;12.55;6.55;;;;;;;9.16;60.93;100760.84;4979818;28;20038;-64
2023/01/02 06:02:52;;;;;;;15.00;6.97;;;;;;;9.28;60.85;100763.00;4979245;28;20566;-63
2023/01/02 06:05:17;;;;;;;11.27;7.13;;;;;;;9.27;60.82;100755.22;4982116;28;20665;-64
2023/01/02 06:07:43;;;;;;;12.93;7.15;;;;;;;8.76;62.32;100760.50;4962602;28;20446;-64
2023/01/02 06:10:08;;;;;;;16.00;6.68;;;;;;;8.23;64.16;100764.84;4962675;28;20508;-70
2023/01/02 06:12:34;;;;;;;13.63;6.18;;;;;;;8.26;64.25;100760.38;4957825;28;20276;-71
2023/01/02 06:14:59;;;;;;;11.25;6.50;;;;;;;8.42;64.13;100752.91;4961102;28;20077;-70
2023/01/02 06:17:25;;;;;;;13.15;6.18;;;;;;;9.10;62.16;100754.09;4967481;28;20228;-70
2023/01/02 06:19:50;;;;;;;10.93;5.57;;;;;;;8.78;62.42;100755.22;4962329;28;20038;-70
2023/01/02 06:22:16;;;;;;;10.20;5.65;;;;;;;8.95;62.10;100758.09;4958394;28;20043;-70
2023/01/02 06:24:41;;;;;;;9.95;5.90;;;;;;;8.89;62.53;100766.13;4961323;28;20033;-70
2023/01/02 06:27:07;;;;;;;7.90;5.40;;;;;;;9.19;61.18;100769.41;4958778;28;20042;-70
2023/01/02 06:29:32;;;;;;;11.50;5.90;;;;;;;8.76;63.24;100759.63;4961113;28;20137;-70
2023/01/02 06:31:57;;;;;;;7.55;5.32;;;;;;;8.53;63.43;100758.63;4956282;28;20114;-70
2023/01/02 06:34:23;;;;;;;8.77;5.05;;;;;;;9.06;62.22;100764.69;4956023;28;20045;-70
2023/01/02 06:36:48;;;;;;;11.40;5.93;;;;;;;9.17;62.03;100767.78;4958851;28;20353;-67
2023/01/02 06:39:14;;;;;;;10.13;5.25;;;;;;;9.18;61.51;100767.69;4959772;28;20167;-64
2023/01/02 06:41:39;;;;;;;8.55;5.05;;;;;;;9.42;60.95;100754.69;4961116;28;20117;-73
2023/01/02 06:44:04;;;;;;;10.23;6.10;;;;;;;9.12;62.08;100767.06;4962574;28;20627;-67
2023/01/02 06:46:30;;;;;;;8.90;5.63;;;;;;;8.77;63.10;100753.53;4959853;28;20511;-68
2023/01/02 06:48:55;;;;;;;12.48;5.13;;;;;;;9.11;62.26;100760.16;4958048;28;20396;-67
2023/01/02 06:51:22;;;;;;;9.80;4.82;;;;;;;9.32;61.56;100751.56;4959241;28;20498;-68
2023/01/02 06:53:48;;;;;;;11.60;5.88;;;;;;;9.21;61.67;100758.94;4955998;28;20584;-66
2023/01/02 06:56:18;;;;;;;12.93;5.90;;;;;;;8.91;62.80;100759.09;4957571;28;20053;-67
2023/01/02 06:58:44;;;;;;;9.85;5.38;;;;;;;9.26;61.82;100759.59;4959163;28;20416;-68
2023/01/02 07:01:17;;;;;;;10.43;4.93;;;;;;;8.48;64.12;100765.75;4961232;28;20520;-67
2023/01/02 07:03:44;;;;;;;9.70;5.40;;;;;;;9.24;61.53;100763.19;4957083;28;20162;-67
2023/01/02 07:06:14;;;;;;;13.75;6.32;;;;;;;8.91;63.01;100764.31;4957772;28;20038;-67
2023/01/02 07:08:42;;;;;;;13.63;6.05;;;;;;;9.28;61.65;100755.19;4958257;28;20042;-67
2023/01/02 07:11:17;;;;;;;10.68;5.07;;;;;;;9.07;62.95;100753.34;4967275;28;20045;-67
2023/01/02 07:13:45;;;;;;;11.13;4.15;;;;;;;9.09;62.69;100754.16;4961557;28;20100;-67
2023/01/02 07:16:12;;;;;;;8.23;4.18;;;;;;;9.14;62.29;100752.22;4966185;28;20038;-68
2023/01/02 07:18:41;;;;;;;8.60;5.00;;;;;;;9.01;62.94;100758.78;4957892;28;20819;-68
2023/01/02 07:21:08;;;;;;;5.57;3.53;;;;;;;9.01;63.09;100761.38;4960115;28;20561;-68
2023/01/02 07:23:34;;;;;;;8.57;3.95;;;;;;;8.88;62.84;100759.22;4954889;28;20236;-68
2023/01/02 07:26:01;;;;;;;6.53;4.18;;;;;;;8.83;63.64;100758.53;4959780;28;20339;-68
2023/01/02 07:28:28;;;;;;;8.38;4.18;;;;;;;9.04;62.95;100762.13;4957551;28;20038;-68
2023/01/02 07:31:02;;;;;;;6.45;4.63;;;;;;;9.35;61.90;100758.44;4959561;28;20542;-66
2023/01/02 07:33:28;;;;;;;7.72;3.88;;;;;;;8.91;63.20;100764.31;4957389;28;20412;-67
2023/01/02 07:35:58;;;;;;;8.05;4.32;;;;;;;8.89;63.73;100771.31;4972805;28;20045;-67
2023/01/02 07:38:23;;;;;;;7.63;3.20;;;;;;;9.06;62.95;100769.91;4959556;28;20042;-68
2023/01/02 07:40:49;;;;;;;8.52;4.20;;;;;;;8.59;64.05;100767.16;4961234;28;20209;-68
2023/01/02 07:43:14;;;;;;;4.85;3.25;;;;;;;8.77;63.84;100766.56;4958265;28;20100;-68
2023/01/02 07:45:39;;;;;;;6.00;2.47;;;;;;;9.14;62.60;100781.78;4964551;28;20611;-67
2023/01/02 07:48:05;;;;;;;4.97;3.03;;;;;;;8.90;62.95;100783.47;4978648;28;20043;-68
2023/01/02 07:50:30;;;;;;;8.10;3.38;;;;;;;8.79;63.24;100803.84;4976976;28;20049;-68
2023/01/02 07:52:56;;;;;;;9.32;3.55;;;;;;;9.28;61.90;100809.97;4959623;28;20065;-67
2023/01/02 07:55:21;;;;;;;5.00;3.50;;;;;;;8.81;63.02;100812.47;4960070;28;20582;-68
2023/01/02 07:57:49;;;;;;;4.15;2.90;;;;;;;9.22;62.03;100810.16;4960153;28;20519;-67
2023/01/02 08:00:17;;;;;;;7.15;2.63;;;;;;;9.48;60.72;100811.00;4959797;28;20459;-68
2023/01/02 08:02:42;;;;;;;4.55;3.35;;;;;;;9.25;61.75;100809.22;4956803;28;20136;-68
2023/01/02 08:05:08;;;;;;;5.32;2.63;;;;;;;9.33;61.32;100821.06;4959536;28;20544;-68
2023/01/02 08:07:33;;;;;;;3.65;1.65;;;;;;;9.58;60.31;100828.00;4966278;28;20034;-68
2023/01/02 08:09:59;;;;;;;6.70;2.55;;;;;;;9.42;60.67;100830.34;4959232;28;20457;-68
2023/01/02 08:12:25;;;;;;;2.90;1.52;;;;;;;9.22;61.07;100846.69;4958665;28;20058;-67
2023/01/02 08:14:51;;;;;;;4.18;1.85;;;;;;;9.32;60.76;100842.84;4960612;28;20131;-68
2023/01/02 08:17:16;;;;;;;2.63;1.58;;;;;;;9.05;61.26;100854.22;4964424;28;20034;-68
2023/01/02 08:19:42;;;;;;;3.42;1.92;;;;;;;8.66;62.49;100858.06;4961431;28;20038;-68
2023/01/02 08:22:07;;;;;;;2.08;1.25;;;;;;;8.67;62.58;100859.78;4964351;28;20459;-68
2023/01/02 08:24:32;;;;;;;3.80;2.10;;;;;;;8.70;62.16;100862.28;4973778;28;20206;-68
2023/01/02 08:26:58;;;;;;;6.85;1.60;;;;;;;8.54;62.42;100879.31;4962664;28;20708;-68
2023/01/02 08:29:23;;;;;;;2.80;2.28;;;;;;;8.77;61.84;100881.22;4981156;28;20533;-68
2023/01/02 08:31:49;;;;;;;2.05;0.98;;;;;;;8.28;61.40;100893.13;4981596;28;20297;-67
2023/01/02 08:34:14;;;;;;;2.15;0.88;;;;;;;7.98;60.98;100895.75;4979441;28;20042;-67
2023/01/02 08:36:44;;;;;;;1.58;0.80;;;;;;;8.13;60.59;100892.69;4981212;28;20541;-68
2023/01/02 08:39:09;;;;;;;1.60;0.80;;;;;;;7.91;60.40;100905.47;4965288;28;20070;-67
2023/01/02 08:41:38;;;;;;;1.98;0.98;;;;;;;7.73;60.25;100927.66;4960667;28;20837;-68
2023/01/02 08:44:03;;;;;;;1.75;0.70;;;;;;;7.27;61.23;100939.22;4966122;28;20306;-68
2023/01/02 08:46:34;;;;;;;1.60;0.95;;;;;;;7.11;60.91;100948.31;4969022;28;20454;-67
2023/01/02 08:48:59;;;;;;;1.45;0.88;;;;;;;7.15;60.53;100965.50;4960260;28;20551;-68
2023/01/02 08:51:25;;;;;;;1.40;0.40;;;;;;;6.72;61.07;100970.88;4965427;28;20524;-67
2023/01/02 08:53:51;;;;;;;2.60;0.30;;;;;;;6.91;59.69;100973.00;4960629;28;20298;-67
2023/01/02 08:56:17;;;;;;;1.33;0.40;;;;;;;7.16;58.43;100980.22;4971575;28;20038;-67
2023/01/02 08:58:42;;;;;;;4.40;0.60;;;;;;;6.77;59.54;100985.44;4979833;28;20054;-67
2023/01/02 09:01:07;;;;;;;2.78;0.55;;;;;;;6.63;59.89;100982.31;4975674;28;20127;-67
2023/01/02 09:03:33;;;;;;;1.52;0.40;;;;;;;6.50;59.84;100995.53;4985017;28;20122;-67
2023/01/02 09:05:58;;;;;;;4.22;0.30;;;;;;;6.55;59.81;101004.97;4986963;28;20099;-66
2023/01/02 09:08:24;;;;;;;1.80;0.40;;;;;;;6.35;60.05;101002.78;4982262;28;20136;-67
2023/01/02 09:10:49;;;;;;;3.65;0.52;;;;;;;6.15;60.20;101021.31;4970549;28;20111;-67
2023/01/02 09:13:15;;;;;;;3.70;0.43;;;;;;;6.31;60.06;101033.16;4975696;28;20034;-67
2023/01/02 09:15:43;;;;;;;1.70;0.43;;;;;;;6.11;60.26;101046.50;4960089;28;20054;-67
2023/01/02 09:18:10;;;;;;;1.20;0.40;;;;;;;6.40;59.71;101061.53;4964953;28;20567;-66
2023/01/02 09:20:39;;;;;;;1.98;0.28;;;;;;;6.23;59.76;101071.34;4965181;28;20030;-65
2023/01/02 09:23:06;;;;;;;0.88;0.40;;;;;;;6.54;59.10;101081.19;4976450;28;20698;-66
2023/01/02 09:25:31;;;;;;;1.33;0.30;;;;;;;6.49;59.38;101092.53;4965417;28;20406;-66
2023/01/02 09:27:57;;;;;;;5.13;0.55;;;;;;;6.24;59.79;101096.44;4978229;28;20667;-65
2023/01/02 09:30:22;;;;;;;2.78;0.52;;;;;;;6.35;59.67;101109.22;4964357;28;20128;-65
2023/01/02 09:32:49;;;;;;;1.73;0.30;;;;;;;6.37;58.98;101103.13;4975254;28;20057;-66
2023/01/02 09:35:15;;;;;;;2.08;0.20;;;;;;;6.59;59.08;101115.72;4961121;28;20224;-66
2023/01/02 09:37:41;;;;;;;0.95;0.20;;;;;;;6.81;58.31;101132.59;4958574;28;20133;-66
2023/01/02 09:40:07;;;;;;;1.58;0.40;;;;;;;6.70;58.56;101144.94;4964623;28;20519;-65
2023/01/02 09:42:32;;;;;;;5.05;0.30;;;;;;;6.75;58.32;101161.28;4965960;28;20046;-66
2023/01/02 09:45:03;;;;;;;1.48;0.35;;;;;;;6.59;58.38;101162.47;4980523;28;20061;-66
2023/01/02 09:47:29;;;;;;;2.47;0.37;;;;;;;6.74;58.58;101174.31;4976740;28;20058;-65
2023/01/02 09:50:04;;;;;;;2.55;0.63;;;;;;;6.52;58.64;101179.03;4962366;28;20034;-65
2023/01/02 09:52:43;;;;;;;5.90;0.82;;;;;;;6.47;59.19;101179.13;4957899;28;20050;-66
2023/01/02 09:55:18;;;;;;;1.55;0.60;;;;;;;6.50;58.68;101182.50;4963212;28;20053;-66
2023/01/02 09:57:49;;;;;;;5.93;1.10;;;;;;;6.55;58.50;101198.03;4988044;28;20053;-66
2023/01/02 10:00:21;;;;;;;1.63;0.80;;;;;;;6.73;58.11;101204.63;4982058;28;20350;-65
2023/01/02 10:03:07;;;;;;;2.10;0.55;;;;;;;6.66;58.00;101205.59;4978149;28;20066;-65
2023/01/02 10:05:54;;;;;;;1.08;0.43;;;;;;;6.35;59.31;101211.38;4995561;28;20046;-66
2023/01/02 10:08:20;;;;;;;1.40;0.47;;;;;;;6.45;58.74;101212.91;4981709;28;20160;-65
2023/01/02 10:10:55;;;;;;;2.75;1.45;;;;;;;6.44;58.40;101216.41;4996441;28;20596;-65
2023/01/02 10:13:35;;;;;;;2.25;0.55;;;;;;;6.35;59.39;101231.25;4980535;28;20160;-65
2023/01/02 10:16:04;;;;;;;2.40;0.40;;;;;;;6.62;58.45;101236.00;4981182;28;20033;-66
2023/01/02 10:18:40;;;;;;;1.92;0.40;;;;;;;6.62;58.52;101235.13;4982716;28;20057;-65
2023/01/02 10:21:14;;;;;;;1.08;0.20;;;;;;;6.52;58.83;101237.03;4980024;28;20038;-65
2023/01/02 10:23:45;;;;;;;0.50;0.10;;;;;;;6.61;58.53;101246.41;4977874;28;20040;-65
2023/01/02 10:26:26;;;;;;;1.00;0.20;;;;;;;6.82;58.00;101246.03;4980031;28;20064;-65
2023/01/02 10:29:21;;;;;;;0.52;0.10;;;;;;;6.76;58.40;101253.94;4978919;28;20432;-65
2023/01/02 10:32:11;;;;;;;2.08;0.10;;;;;;;6.22;59.34;101266.94;4977462;28;20042;-66
2023/01/02 10:35:06;;;;;;;1.63;0.50;;;;;;;6.32;59.05;101278.06;4955671;28;20035;-65
2023/01/02 10:37:33;;;;;;;1.58;0.38;;;;;;;6.55;58.34;101270.75;4958131;28;20066;-65
2023/01/02 10:39:58;;;;;;;1.23;0.38;;;;;;;6.66;58.37;101279.22;4957970;28;20039;-65
2023/01/02 10:42:24;;;;;;;1.17;0.35;;;;;;;6.37;58.92;101284.03;4958731;28;20109;-65
2023/01/02 10:44:50;;;;;;;0.75;0.30;;;;;;;6.28;59.22;101282.41;4955390;28;20084;-65
2023/01/02 10:47:18;;;;;;;1.80;0.17;;;;;;;6.08;59.35;101288.75;4958923;28;20054;-65
2023/01/02 10:49:44;;;;;;;2.63;0.30;;;;;;;6.10;59.51;101293.91;4972115;28;20277;-66
2023/01/02 10:52:34;;;;;;;2.90;0.10;;;;;;;6.70;57.74;101287.81;4962103;28;20035;-65
2023/01/02 10:55:00;;;;;;;3.17;0.20;;;;;;;6.39;58.40;101290.91;4951315;28;20639;-64
2023/01/02 10:57:44;;;;;;;0.80;0.10;;;;;;;6.29;58.61;101291.94;4973445;28;20042;-65
2023/01/02 11:00:18;;;;;;;4.32;0.30;;;;;;;6.63;58.05;101288.78;4958991;28;20034;-64
2023/01/02 11:02:50;;;;;;;2.15;0.20;;;;;;;6.39;58.51;101290.03;4964005;28;20582;-66
2023/01/02 11:05:22;;;;;;;5.68;0.20;;;;;;;6.32;59.12;101293.63;4976086;28;20042;-65
2023/01/02 11:07:49;;;;;;;;;;;;;;;6.59;57.92;101293.16;4991429;28;20080;-65
2023/01/02 11:10:28;;;;;;;1.15;0.20;;;;;;;6.55;58.21;101298.44;4991650;28;19960;-66
2023/01/02 11:12:54;;;;;;;3.50;0.30;;;;;;;6.89;57.42;101297.00;4982801;28;20063;-65
2023/01/02 11:15:26;;;;;;;1.65;0.30;;;;;;;6.76;57.61;101300.69;4982240;28;20671;-67
2023/01/02 11:17:52;;;;;;;1.63;0.20;;;;;;;5.87;59.43;101309.81;4979245;28;20343;-66
2023/01/02 11:20:25;;;;;;;2.95;0.30;;;;;;;6.31;58.99;101313.53;4977088;28;20279;-67
2023/01/02 11:22:54;;;;;;;1.80;0.30;;;;;;;6.29;58.81;101310.09;4977510;28;20290;-66
2023/01/02 11:25:24;;;;;;;4.75;1.48;;;;;;;6.33;58.45;101301.41;4974181;28;20567;-66
2023/01/02 11:27:50;;;;;;;5.38;0.30;;;;;;;6.59;57.93;101297.50;4964497;28;20049;-66
2023/01/02 11:30:35;;;;;;;2.47;0.10;;;;;;;6.68;57.80;101305.16;4974358;28;20694;-67
2023/01/02 11:33:29;;;;;;;0.45;0.20;;;;;;;6.67;57.30;101337.22;4975608;28;20065;-66
2023/01/02 11:36:04;;;;;;;0.77;0.17;;;;;;;6.45;58.17;101318.53;4971842;28;20402;-65
2023/01/02 11:38:52;;;;;;;1.75;0.20;;;;;;;6.25;58.22;101321.38;4974696;28;20050;-64
2023/01/02 11:44:26;;;;;;;0.73;0.10;;;;;;;6.22;58.19;101318.84;4975270;28;20119;-66